createdAt,value
2022-09-27T00:06:12.227Z,1
2022-09-27T00:16:12.221Z,1
2022-09-27T00:26:12.081Z,1
2022-09-27T00:36:12.084Z,1
2022-09-27T00:46:12.018Z,1
2022-09-27T00:56:11.861Z,1
2022-09-27T01:06:11.810Z,1
2022-09-27T01:16:11.786Z,1
2022-09-27T01:26:11.640Z,1
2022-09-27T01:36:11.577Z,1
2022-09-27T01:46:11.593Z,1
2022-09-27T01:56:11.548Z,1
2022-09-27T02:06:12.882Z,1
2022-09-27T02:16:11.336Z,1
2022-09-27T02:26:11.207Z,1
2022-09-27T02:36:11.262Z,1
2022-09-27T02:46:11.115Z,1
2022-09-27T02:56:11.002Z,1
2022-09-27T03:06:10.930Z,1
2022-09-27T03:16:10.860Z,1
2022-09-27T03:26:12.850Z,1
2022-09-27T03:36:10.726Z,1
2022-09-27T03:46:10.674Z,1
2022-09-27T03:56:10.585Z,1
2022-09-27T04:06:10.513Z,1
2022-09-27T04:16:10.427Z,1
2022-09-27T04:26:10.350Z,1
2022-09-27T04:36:10.411Z,1
2022-09-27T04:46:10.266Z,1
2022-09-27T04:56:10.167Z,1
2022-09-27T05:06:10.184Z,8
2022-09-27T05:16:09.998Z,27
2022-09-27T05:26:09.949Z,38
2022-09-27T05:36:09.888Z,35
2022-09-27T05:46:09.940Z,24
2022-09-27T05:56:09.731Z,18
2022-09-27T06:06:09.680Z,33
2022-09-27T06:16:09.575Z,34
2022-09-27T06:26:09.609Z,22
2022-09-27T06:36:09.475Z,16
2022-09-27T06:46:09.501Z,24
2022-09-27T06:56:09.318Z,19
2022-09-27T07:06:09.290Z,36
2022-09-27T07:16:09.186Z,34
2022-09-27T07:26:09.088Z,40
2022-09-27T07:36:09.051Z,33
2022-09-27T07:46:09.025Z,44
2022-09-27T07:56:08.881Z,53
2022-09-27T08:06:08.823Z,60
2022-09-27T08:16:08.801Z,43
2022-09-27T08:26:08.711Z,59
2022-09-27T08:36:08.614Z,61
2022-09-27T08:46:08.578Z,53
2022-09-27T08:56:08.484Z,55
2022-09-27T09:06:08.433Z,39
2022-09-27T09:16:08.373Z,44
2022-09-27T09:26:08.276Z,62
2022-09-27T09:36:08.197Z,61
2022-09-27T09:46:08.201Z,66
2022-09-27T09:56:08.061Z,69
2022-09-27T10:06:08.007Z,59
2022-09-27T10:16:07.966Z,62
2022-09-27T10:26:07.858Z,63
2022-09-27T10:36:07.799Z,68
2022-09-27T10:46:07.822Z,74
2022-09-27T10:56:07.647Z,70
2022-09-27T11:06:07.584Z,64
2022-09-27T11:16:07.583Z,52
2022-09-27T11:26:07.448Z,58
2022-09-27T11:36:07.379Z,64
2022-09-27T11:46:19.252Z,70
2022-09-27T11:56:07.247Z,71
2022-09-27T12:06:07.886Z,53
2022-09-27T12:16:07.205Z,43
2022-09-27T12:26:07.026Z,54
2022-09-27T12:36:06.961Z,54
2022-09-27T12:46:06.955Z,13
2022-09-27T12:56:06.831Z,22
2022-09-27T13:06:06.767Z,31
2022-09-27T13:16:06.722Z,17
2022-09-27T13:26:06.620Z,19
2022-09-27T13:36:06.554Z,13
2022-09-27T13:46:06.494Z,11
2022-09-27T13:56:06.382Z,7
2022-09-27T14:06:08.736Z,12
2022-09-27T14:16:06.331Z,16
2022-09-27T14:26:06.194Z,8
2022-09-27T14:36:06.150Z,6
2022-09-27T14:46:06.193Z,14
2022-09-27T14:56:05.995Z,17
2022-09-27T15:06:05.952Z,16
2022-09-27T15:16:05.893Z,32
2022-09-27T15:26:05.794Z,41
2022-09-27T15:36:05.746Z,33
2022-09-27T15:46:05.776Z,33
2022-09-27T15:56:05.591Z,30
2022-09-27T16:06:05.533Z,26
2022-09-27T16:16:05.469Z,28
2022-09-27T16:26:05.372Z,31
2022-09-27T16:36:05.325Z,31
2022-09-27T16:46:05.240Z,27
2022-09-27T16:56:05.181Z,21
2022-09-27T17:06:05.116Z,28
2022-09-27T17:16:05.084Z,25
2022-09-27T17:26:04.978Z,27
2022-09-27T17:36:04.894Z,28
2022-09-27T17:46:04.847Z,27
2022-09-27T17:56:04.774Z,25
2022-09-27T18:06:04.699Z,31
2022-09-27T18:16:04.680Z,37
2022-09-27T18:26:04.567Z,37
2022-09-27T18:36:04.454Z,33
2022-09-27T18:46:30.857Z,33
2022-09-27T18:56:04.357Z,26
2022-09-27T19:06:04.263Z,29
2022-09-27T19:16:04.275Z,28
2022-09-27T19:26:04.153Z,24
2022-09-27T19:36:04.073Z,23
2022-09-27T19:46:04.026Z,25
2022-09-27T19:56:03.942Z,18
2022-09-27T20:06:03.868Z,18
2022-09-27T20:16:03.893Z,11
2022-09-27T20:26:03.729Z,17
2022-09-27T20:36:03.660Z,16
2022-09-27T20:46:03.582Z,24
2022-09-27T20:56:03.548Z,18
2022-09-27T21:06:03.569Z,14
2022-09-27T21:16:03.424Z,7
2022-09-27T21:26:03.309Z,10
2022-09-27T21:36:03.267Z,15
2022-09-27T21:46:03.205Z,16
2022-09-27T21:56:03.109Z,12
2022-09-27T22:06:03.030Z,6
2022-09-27T22:16:03.003Z,2
2022-09-27T22:26:02.907Z,1
2022-09-27T22:36:02.920Z,1
2022-09-27T22:46:02.757Z,1
2022-09-27T22:56:04.490Z,3
2022-09-27T23:06:02.616Z,1
2022-09-27T23:16:02.661Z,1
2022-09-27T23:26:02.462Z,1
2022-09-27T23:36:02.412Z,1
2022-09-27T23:46:02.340Z,1
2022-09-27T23:56:02.293Z,1
